Ankara, Turkey

6:39 AM EET on February 14, 2016 (GMT +0200)
Esenboga | | Change Station
CLOSE
Current Station
Airport
Location: Ankara,
Elevation: 3114 ft
Nearby Weather Stations

Elev 3114 ft 40.13 °N, 33.00 °E | Updated 19 minutes ago

Light Rain Showers
Light Showers Rain
45 °F
Feels Like 40 °F
N
9
Wind Variable Wind from South

Today
High -- | Low -- °F
--% Chance of Precip.
Yesterday
High -- | Low -- °F
Precip. -- in
Pressure 29.95 in
Visibility 6.2 miles
Clouds Mostly Cloudy 3500 ft
Mostly Cloudy 8000 ft
Windchill 40 °F
Dew Point 39 °F
Humidity 81%
Rainfall 0.00 in
Snow Depth Not available.
6:43 AM 5:21 PM
Waxing Crescent, 37% visible
METAR LTAC 140420Z 19008KT 9999 -SHRA BKN035 BKN080 07/04 Q1014 NOSIG
Pressure 29.95 in
Visibility 6.2 miles
Clouds Mostly Cloudy 3500 ft
Mostly Cloudy 8000 ft
Windchill 40 °F
Dew Point 39 °F
Humidity 81%
Rainfall 0.00 in
Snow Depth Not available.
6:43 AM 5:21 PM
Waxing Crescent, 37% visible
METAR LTAC 140420Z 19008KT 9999 -SHRA BKN035 BKN080 07/04 Q1014 NOSIG

10-Day Weather Forecast

Almanac

Astronomy

Feb. 14, 2016 Rise Set
Actual Time
Civil Twilight
Nautical Twilight
Astronomical Twilight
Moon
Length of Visible Light
Length of Day
Tomorrow will be .
, % of the Moon is Illuminated

Today's Extremes

Country Highs Country Lows

Community

WunderPhotos

Upload Photos

1,892,746 photos uploaded!

WunderBlog® & News

Nearby

Air Quality

  Air Quality AQ Index Pollutant
Not available.

Snow Depth

Station Depth Elevation

Earthquake Activity

City Distance Mag. Time & Date
Minimum magnitude displayed is 2.5.

Coastal Water Temperatures

Place Temperature

Stations

Nearby Weather Stations

Station Location Temp. Windchill Dew Point Humidity Wind Precip. Elev Updated Type